Hemingford, Nebraska
Current Conditions -  °F | °C
As of 1:53 PM on Tuesday 21 Oct 2014 (Local Time) from KAIA Reporting Station
Clear Clear  
Wind Chill: 74°   Ceiling: Unl
Heat Index: 74°   Visibility: 10mi
Dew Point: 48°   Wind: 16mph
Humidity: 40%   Direction: 150°SSE
Pressure: 29.89"   Gusts: 25mph
Location:  42.32°N, 103.07°W
Report Text: KAIA 211953Z AUTO 15014G22KT 10SM CLR 23/09 A2989 RMK AO2 SLP092 T02330089
Loading
Personal Weather Stations






























Interactive Weather Map
Tropical Storm Tracking
New forecast layout! Learn more

10-Day Weather Forecast

Advertisements
Track Severe Weather on mobile